<?xml version="1.0" encoding="UTF-8" standalone="no" ?>
<gpx xmlns="http://www.topografix.com/GPX/1/1" xmlns:xsi="http://www.w3.org/2001/XMLSchema-instance" xsi:schemaLocation="http://www.topografix.com/GPX/1/1 http://www.topografix.com/GPX/1/1/gpx.xsd" version="1.1" creator="VisuGPX - https://www.visugpx.com">
  <metadata>
    <name>Triel sur Seine</name>
  </metadata>
  <trk>
    <name><![CDATA[Triel sur Seine_1]]></name>
    <extensions>
      <line xmlns="http://www.topografix.com/GPX/gpx_style/0/2">
        <color>0000FF</color>
        <width>4</width>
      </line>
    </extensions>
    <trkseg>
      <trkpt lat="48.97992" lon="2.00637">
        <ele>51</ele>
        <time>2021-11-13T17:55:39+01:00</time>
      </trkpt>
      <trkpt lat="48.98002" lon="2.00636">
        <ele>51.7</ele>
      </trkpt>
      <trkpt lat="48.97992" lon="2.00637">
        <ele>51</ele>
        <time>2021-11-13T17:55:39+01:00</time>
      </trkpt>
      <trkpt lat="48.97954" lon="2.00657">
        <ele>49</ele>
        <time>2021-11-13T17:55:44+01:00</time>
      </trkpt>
      <trkpt lat="48.97912" lon="2.00525">
        <ele>41</ele>
        <time>2021-11-13T17:55:49+01:00</time>
      </trkpt>
      <trkpt lat="48.97882" lon="2.00442">
        <ele>32</ele>
        <time>2021-11-13T17:55:54+01:00</time>
      </trkpt>
      <trkpt lat="48.97916" lon="2.00418">
        <ele>32</ele>
        <time>2021-11-13T17:55:59+01:00</time>
      </trkpt>
      <trkpt lat="48.97884" lon="2.00299">
        <ele>23</ele>
        <time>2021-11-13T17:56:04+01:00</time>
      </trkpt>
      <trkpt lat="48.97875" lon="2.00289">
        <ele>22</ele>
        <time>2021-11-13T17:56:09+01:00</time>
      </trkpt>
      <trkpt lat="48.97868" lon="2.00256">
        <ele>20</ele>
        <time>2021-11-13T17:56:14+01:00</time>
      </trkpt>
      <trkpt lat="48.97924" lon="2.00219">
        <ele>19</ele>
        <time>2021-11-13T17:56:19+01:00</time>
      </trkpt>
      <trkpt lat="48.97945" lon="2.002">
        <ele>20</ele>
        <time>2021-11-13T17:56:24+01:00</time>
      </trkpt>
      <trkpt lat="48.98002" lon="2.00162">
        <ele>22</ele>
        <time>2021-11-13T17:56:29+01:00</time>
      </trkpt>
      <trkpt lat="48.98024" lon="2.0013">
        <ele>20</ele>
        <time>2021-11-13T17:56:34+01:00</time>
      </trkpt>
      <trkpt lat="48.98057" lon="2.0012">
        <ele>22</ele>
        <time>2021-11-13T17:56:39+01:00</time>
      </trkpt>
      <trkpt lat="48.9808" lon="2.0009">
        <ele>22</ele>
        <time>2021-11-13T17:56:44+01:00</time>
      </trkpt>
      <trkpt lat="48.98106" lon="2.00068">
        <ele>21</ele>
        <time>2021-11-13T17:56:49+01:00</time>
      </trkpt>
      <trkpt lat="48.9812" lon="2.00063">
        <ele>21</ele>
        <time>2021-11-13T17:56:54+01:00</time>
      </trkpt>
      <trkpt lat="48.98135" lon="2.00049">
        <ele>21</ele>
        <time>2021-11-13T17:56:59+01:00</time>
      </trkpt>
      <trkpt lat="48.98179" lon="2.00029">
        <ele>21</ele>
        <time>2021-11-13T17:57:04+01:00</time>
      </trkpt>
      <trkpt lat="48.98188" lon="2.00029">
        <ele>21</ele>
        <time>2021-11-13T17:57:09+01:00</time>
      </trkpt>
      <trkpt lat="48.98305" lon="1.99958">
        <ele>21</ele>
        <time>2021-11-13T17:57:14+01:00</time>
      </trkpt>
      <trkpt lat="48.98341" lon="1.9994">
        <ele>22</ele>
        <time>2021-11-13T17:57:19+01:00</time>
      </trkpt>
      <trkpt lat="48.98395" lon="1.99903">
        <ele>24</ele>
        <time>2021-11-13T17:57:24+01:00</time>
      </trkpt>
      <trkpt lat="48.98441" lon="1.9985">
        <ele>26</ele>
        <time>2021-11-13T17:57:29+01:00</time>
      </trkpt>
      <trkpt lat="48.98516" lon="1.99744">
        <ele>25</ele>
        <time>2021-11-13T17:57:34+01:00</time>
      </trkpt>
      <trkpt lat="48.98617" lon="1.99594">
        <ele>27</ele>
        <time>2021-11-13T17:57:39+01:00</time>
      </trkpt>
      <trkpt lat="48.98651" lon="1.99674">
        <ele>32</ele>
        <time>2021-11-13T17:57:44+01:00</time>
      </trkpt>
      <trkpt lat="48.986" lon="1.99743">
        <ele>32</ele>
        <time>2021-11-13T17:57:49+01:00</time>
      </trkpt>
      <trkpt lat="48.98601" lon="1.99759">
        <ele>34</ele>
        <time>2021-11-13T17:57:54+01:00</time>
      </trkpt>
      <trkpt lat="48.98505" lon="1.99888">
        <ele>34</ele>
        <time>2021-11-13T17:57:59+01:00</time>
      </trkpt>
      <trkpt lat="48.98562" lon="1.99975">
        <ele>52</ele>
        <time>2021-11-13T17:58:04+01:00</time>
      </trkpt>
      <trkpt lat="48.9856" lon="1.99994">
        <ele>54</ele>
        <time>2021-11-13T17:58:09+01:00</time>
      </trkpt>
      <trkpt lat="48.9859" lon="1.99958">
        <ele>55</ele>
        <time>2021-11-13T17:58:14+01:00</time>
      </trkpt>
      <trkpt lat="48.98628" lon="1.99908">
        <ele>54</ele>
        <time>2021-11-13T17:58:19+01:00</time>
      </trkpt>
      <trkpt lat="48.987" lon="1.99818">
        <ele>56</ele>
        <time>2021-11-13T17:58:24+01:00</time>
      </trkpt>
      <trkpt lat="48.9879" lon="1.99706">
        <ele>55</ele>
        <time>2021-11-13T17:58:29+01:00</time>
      </trkpt>
      <trkpt lat="48.9887" lon="1.99576">
        <ele>51</ele>
        <time>2021-11-13T17:58:34+01:00</time>
      </trkpt>
      <trkpt lat="48.98946" lon="1.99481">
        <ele>53</ele>
        <time>2021-11-13T17:58:39+01:00</time>
      </trkpt>
      <trkpt lat="48.99001" lon="1.99395">
        <ele>52</ele>
        <time>2021-11-13T17:58:44+01:00</time>
      </trkpt>
      <trkpt lat="48.99044" lon="1.99361">
        <ele>55</ele>
        <time>2021-11-13T17:58:49+01:00</time>
      </trkpt>
      <trkpt lat="48.99112" lon="1.99325">
        <ele>60</ele>
        <time>2021-11-13T17:58:54+01:00</time>
      </trkpt>
      <trkpt lat="48.99142" lon="1.99323">
        <ele>62</ele>
        <time>2021-11-13T17:58:59+01:00</time>
      </trkpt>
      <trkpt lat="48.99179" lon="1.99359">
        <ele>68</ele>
        <time>2021-11-13T17:59:04+01:00</time>
      </trkpt>
      <trkpt lat="48.992" lon="1.9932">
        <ele>64.8</ele>
        <time>2021-11-13T17:59:09+01:00</time>
      </trkpt>
      <trkpt lat="48.9917" lon="1.99174">
        <ele>54.2</ele>
        <time>2021-11-13T17:59:14+01:00</time>
      </trkpt>
      <trkpt lat="48.99148" lon="1.99194">
        <ele>49</ele>
        <time>2021-11-13T17:59:19+01:00</time>
      </trkpt>
      <trkpt lat="48.99126" lon="1.99227">
        <ele>49</ele>
        <time>2021-11-13T17:59:24+01:00</time>
      </trkpt>
      <trkpt lat="48.99099" lon="1.99181">
        <ele>39</ele>
        <time>2021-11-13T17:59:29+01:00</time>
      </trkpt>
      <trkpt lat="48.99163" lon="1.99088">
        <ele>42</ele>
        <time>2021-11-13T17:59:34+01:00</time>
      </trkpt>
      <trkpt lat="48.99254" lon="1.9896">
        <ele>39</ele>
        <time>2021-11-13T17:59:39+01:00</time>
      </trkpt>
      <trkpt lat="48.99269" lon="1.98957">
        <ele>42</ele>
        <time>2021-11-13T17:59:44+01:00</time>
      </trkpt>
      <trkpt lat="48.99288" lon="1.98987">
        <ele>49</ele>
        <time>2021-11-13T17:59:49+01:00</time>
      </trkpt>
      <trkpt lat="48.99291" lon="1.99002">
        <ele>51</ele>
        <time>2021-11-13T17:59:54+01:00</time>
      </trkpt>
      <trkpt lat="48.99264" lon="1.99058">
        <ele>55</ele>
        <time>2021-11-13T17:59:59+01:00</time>
      </trkpt>
      <trkpt lat="48.99268" lon="1.99075">
        <ele>59</ele>
        <time>2021-11-13T18:00:04+01:00</time>
      </trkpt>
      <trkpt lat="48.9932" lon="1.99111">
        <ele>67</ele>
        <time>2021-11-13T18:00:09+01:00</time>
      </trkpt>
      <trkpt lat="48.99355" lon="1.99145">
        <ele>73</ele>
        <time>2021-11-13T18:00:14+01:00</time>
      </trkpt>
      <trkpt lat="48.99386" lon="1.99122">
        <ele>74</ele>
        <time>2021-11-13T18:00:19+01:00</time>
      </trkpt>
      <trkpt lat="48.99413" lon="1.99071">
        <ele>74</ele>
        <time>2021-11-13T18:00:24+01:00</time>
      </trkpt>
      <trkpt lat="48.99425" lon="1.99036">
        <ele>75</ele>
        <time>2021-11-13T18:00:29+01:00</time>
      </trkpt>
      <trkpt lat="48.99436" lon="1.99024">
        <ele>76</ele>
        <time>2021-11-13T18:00:34+01:00</time>
      </trkpt>
      <trkpt lat="48.99459" lon="1.9906">
        <ele>79</ele>
        <time>2021-11-13T18:00:39+01:00</time>
      </trkpt>
      <trkpt lat="48.99505" lon="1.99083">
        <ele>83</ele>
        <time>2021-11-13T18:00:44+01:00</time>
      </trkpt>
      <trkpt lat="48.99483" lon="1.99161">
        <ele>85</ele>
        <time>2021-11-13T18:00:49+01:00</time>
      </trkpt>
      <trkpt lat="48.99474" lon="1.99165">
        <ele>85</ele>
        <time>2021-11-13T18:00:54+01:00</time>
      </trkpt>
      <trkpt lat="48.99446" lon="1.99173">
        <ele>83</ele>
        <time>2021-11-13T18:00:59+01:00</time>
      </trkpt>
      <trkpt lat="48.99389" lon="1.99247">
        <ele>81</ele>
        <time>2021-11-13T18:01:04+01:00</time>
      </trkpt>
      <trkpt lat="48.99353" lon="1.99297">
        <ele>78</ele>
        <time>2021-11-13T18:01:09+01:00</time>
      </trkpt>
      <trkpt lat="48.99347" lon="1.99316">
        <ele>77</ele>
        <time>2021-11-13T18:01:14+01:00</time>
      </trkpt>
      <trkpt lat="48.99302" lon="1.9935">
        <ele>74</ele>
        <time>2021-11-13T18:01:19+01:00</time>
      </trkpt>
      <trkpt lat="48.99261" lon="1.99403">
        <ele>73</ele>
        <time>2021-11-13T18:01:24+01:00</time>
      </trkpt>
      <trkpt lat="48.99238" lon="1.99405">
        <ele>72</ele>
        <time>2021-11-13T18:01:29+01:00</time>
      </trkpt>
      <trkpt lat="48.99209" lon="1.99445">
        <ele>74</ele>
        <time>2021-11-13T18:01:34+01:00</time>
      </trkpt>
      <trkpt lat="48.99188" lon="1.99522">
        <ele>80</ele>
        <time>2021-11-13T18:01:39+01:00</time>
      </trkpt>
      <trkpt lat="48.99173" lon="1.99555">
        <ele>84</ele>
        <time>2021-11-13T18:01:44+01:00</time>
      </trkpt>
      <trkpt lat="48.99173" lon="1.99583">
        <ele>86</ele>
        <time>2021-11-13T18:01:49+01:00</time>
      </trkpt>
      <trkpt lat="48.99158" lon="1.99623">
        <ele>88</ele>
        <time>2021-11-13T18:01:54+01:00</time>
      </trkpt>
      <trkpt lat="48.9911" lon="1.99684">
        <ele>91</ele>
        <time>2021-11-13T18:01:59+01:00</time>
      </trkpt>
      <trkpt lat="48.9913" lon="1.99734">
        <ele>94</ele>
        <time>2021-11-13T18:02:04+01:00</time>
      </trkpt>
      <trkpt lat="48.99159" lon="1.9972">
        <ele>94</ele>
        <time>2021-11-13T18:02:09+01:00</time>
      </trkpt>
      <trkpt lat="48.99206" lon="1.9966">
        <ele>90</ele>
        <time>2021-11-13T18:02:14+01:00</time>
      </trkpt>
      <trkpt lat="48.99219" lon="1.99652">
        <ele>90</ele>
        <time>2021-11-13T18:02:19+01:00</time>
      </trkpt>
      <trkpt lat="48.99244" lon="1.99685">
        <ele>93</ele>
        <time>2021-11-13T18:02:24+01:00</time>
      </trkpt>
      <trkpt lat="48.99278" lon="1.99663">
        <ele>93</ele>
        <time>2021-11-13T18:02:29+01:00</time>
      </trkpt>
      <trkpt lat="48.9933" lon="1.99604">
        <ele>92</ele>
        <time>2021-11-13T18:02:34+01:00</time>
      </trkpt>
      <trkpt lat="48.99346" lon="1.99587">
        <ele>92</ele>
        <time>2021-11-13T18:02:39+01:00</time>
      </trkpt>
      <trkpt lat="48.99376" lon="1.99585">
        <ele>95</ele>
        <time>2021-11-13T18:02:44+01:00</time>
      </trkpt>
      <trkpt lat="48.99463" lon="1.99479">
        <ele>95</ele>
        <time>2021-11-13T18:02:49+01:00</time>
      </trkpt>
      <trkpt lat="48.99478" lon="1.99478">
        <ele>96</ele>
        <time>2021-11-13T18:02:54+01:00</time>
      </trkpt>
      <trkpt lat="48.99491" lon="1.99493">
        <ele>97</ele>
        <time>2021-11-13T18:02:59+01:00</time>
      </trkpt>
      <trkpt lat="48.99503" lon="1.99488">
        <ele>98</ele>
        <time>2021-11-13T18:03:04+01:00</time>
      </trkpt>
      <trkpt lat="48.99509" lon="1.99478">
        <ele>98</ele>
        <time>2021-11-13T18:03:09+01:00</time>
      </trkpt>
      <trkpt lat="48.99578" lon="1.99381">
        <ele>100</ele>
        <time>2021-11-13T18:03:14+01:00</time>
      </trkpt>
      <trkpt lat="48.99633" lon="1.99253">
        <ele>101</ele>
        <time>2021-11-13T18:03:19+01:00</time>
      </trkpt>
      <trkpt lat="48.99666" lon="1.99157">
        <ele>101</ele>
        <time>2021-11-13T18:03:24+01:00</time>
      </trkpt>
      <trkpt lat="48.99712" lon="1.99048">
        <ele>109</ele>
        <time>2021-11-13T18:03:29+01:00</time>
      </trkpt>
      <trkpt lat="48.99713" lon="1.99039">
        <ele>110</ele>
        <time>2021-11-13T18:03:34+01:00</time>
      </trkpt>
      <trkpt lat="48.9971" lon="1.99024">
        <ele>104.4</ele>
        <time>2021-11-13T18:03:39+01:00</time>
      </trkpt>
      <trkpt lat="48.99716" lon="1.98996">
        <ele>106.6</ele>
        <time>2021-11-13T18:03:44+01:00</time>
      </trkpt>
      <trkpt lat="48.99731" lon="1.98961">
        <ele>109.6</ele>
        <time>2021-11-13T18:03:49+01:00</time>
      </trkpt>
      <trkpt lat="48.99746" lon="1.98936">
        <ele>113</ele>
        <time>2021-11-13T18:03:54+01:00</time>
      </trkpt>
      <trkpt lat="48.99758" lon="1.98889">
        <ele>116.1</ele>
        <time>2021-11-13T18:03:59+01:00</time>
      </trkpt>
      <trkpt lat="48.99768" lon="1.98911">
        <ele>118</ele>
      </trkpt>
      <trkpt lat="48.99784" lon="1.98929">
        <ele>120.2</ele>
        <time>2021-11-13T18:04:04+01:00</time>
      </trkpt>
      <trkpt lat="48.99802" lon="1.98966">
        <ele>120.2</ele>
        <time>2021-11-13T18:04:09+01:00</time>
      </trkpt>
      <trkpt lat="48.99847" lon="1.99028">
        <ele>125.9</ele>
        <time>2021-11-13T18:04:14+01:00</time>
      </trkpt>
      <trkpt lat="48.99864" lon="1.99063">
        <ele>138</ele>
        <time>2021-11-13T18:04:19+01:00</time>
      </trkpt>
      <trkpt lat="48.99865" lon="1.99096">
        <ele>125.2</ele>
        <time>2021-11-13T18:04:24+01:00</time>
      </trkpt>
      <trkpt lat="48.99872" lon="1.99144">
        <ele>124.6</ele>
        <time>2021-11-13T18:04:29+01:00</time>
      </trkpt>
      <trkpt lat="48.99884" lon="1.99197">
        <ele>122.8</ele>
        <time>2021-11-13T18:04:34+01:00</time>
      </trkpt>
      <trkpt lat="48.99869" lon="1.99238">
        <ele>121.7</ele>
        <time>2021-11-13T18:04:39+01:00</time>
      </trkpt>
      <trkpt lat="48.99867" lon="1.99295">
        <ele>122.7</ele>
        <time>2021-11-13T18:04:44+01:00</time>
      </trkpt>
      <trkpt lat="48.99872" lon="1.99333">
        <ele>121.9</ele>
        <time>2021-11-13T18:04:49+01:00</time>
      </trkpt>
      <trkpt lat="48.99889" lon="1.99393">
        <ele>140</ele>
        <time>2021-11-13T18:04:54+01:00</time>
      </trkpt>
      <trkpt lat="48.99847" lon="1.99518">
        <ele>138</ele>
        <time>2021-11-13T18:04:59+01:00</time>
      </trkpt>
      <trkpt lat="48.99832" lon="1.99533">
        <ele>136</ele>
        <time>2021-11-13T18:05:04+01:00</time>
      </trkpt>
      <trkpt lat="48.99829" lon="1.99576">
        <ele>138</ele>
        <time>2021-11-13T18:05:09+01:00</time>
      </trkpt>
      <trkpt lat="48.99754" lon="1.99634">
        <ele>120.1</ele>
        <time>2021-11-13T18:05:14+01:00</time>
      </trkpt>
      <trkpt lat="48.99677" lon="1.99717">
        <ele>120.1</ele>
        <time>2021-11-13T18:05:19+01:00</time>
      </trkpt>
      <trkpt lat="48.99658" lon="1.99733">
        <ele>120.5</ele>
        <time>2021-11-13T18:05:24+01:00</time>
      </trkpt>
      <trkpt lat="48.99519" lon="1.99815">
        <ele>129</ele>
        <time>2021-11-13T18:05:29+01:00</time>
      </trkpt>
      <trkpt lat="48.99459" lon="1.9983">
        <ele>125</ele>
        <time>2021-11-13T18:05:34+01:00</time>
      </trkpt>
      <trkpt lat="48.9939" lon="1.99887">
        <ele>116.6</ele>
        <time>2021-11-13T18:05:39+01:00</time>
      </trkpt>
      <trkpt lat="48.99315" lon="1.99936">
        <ele>113.8</ele>
        <time>2021-11-13T18:05:44+01:00</time>
      </trkpt>
      <trkpt lat="48.99285" lon="1.99941">
        <ele>113.4</ele>
        <time>2021-11-13T18:05:49+01:00</time>
      </trkpt>
      <trkpt lat="48.99263" lon="1.99987">
        <ele>121.4</ele>
        <time>2021-11-13T18:05:54+01:00</time>
      </trkpt>
      <trkpt lat="48.99249" lon="2.00066">
        <ele>128.2</ele>
        <time>2021-11-13T18:05:59+01:00</time>
      </trkpt>
      <trkpt lat="48.99249" lon="2.00095">
        <ele>139</ele>
        <time>2021-11-13T18:06:04+01:00</time>
      </trkpt>
      <trkpt lat="48.9925" lon="2.00135">
        <ele>142</ele>
        <time>2021-11-13T18:06:09+01:00</time>
      </trkpt>
      <trkpt lat="48.99245" lon="2.00199">
        <ele>136.8</ele>
        <time>2021-11-13T18:06:14+01:00</time>
      </trkpt>
      <trkpt lat="48.99253" lon="2.00261">
        <ele>132.2</ele>
        <time>2021-11-13T18:06:19+01:00</time>
      </trkpt>
      <trkpt lat="48.99288" lon="2.00268">
        <ele>135.3</ele>
        <time>2021-11-13T18:06:24+01:00</time>
      </trkpt>
      <trkpt lat="48.99341" lon="2.0028">
        <ele>146.8</ele>
        <time>2021-11-13T18:06:29+01:00</time>
      </trkpt>
      <trkpt lat="48.99387" lon="2.00318">
        <ele>154.7</ele>
        <time>2021-11-13T18:06:34+01:00</time>
      </trkpt>
      <trkpt lat="48.99437" lon="2.00326">
        <ele>159.6</ele>
        <time>2021-11-13T18:06:39+01:00</time>
      </trkpt>
      <trkpt lat="48.99484" lon="2.00313">
        <ele>165.6</ele>
      </trkpt>
      <trkpt lat="48.99505" lon="2.00301">
        <ele>167.2</ele>
        <time>2021-11-13T18:06:44+01:00</time>
      </trkpt>
      <trkpt lat="48.9956" lon="2.00225">
        <ele>167</ele>
      </trkpt>
      <trkpt lat="48.99599" lon="2.00218">
        <ele>177</ele>
        <time>2021-11-13T18:06:49+01:00</time>
      </trkpt>
      <trkpt lat="48.99754" lon="2.00146">
        <ele>168.4</ele>
      </trkpt>
      <trkpt lat="48.99909" lon="2.00076">
        <ele>173.7</ele>
        <time>2021-11-13T18:06:54+01:00</time>
      </trkpt>
      <trkpt lat="48.99845" lon="2.0045">
        <ele>170</ele>
        <time>2021-11-13T18:06:59+01:00</time>
      </trkpt>
      <trkpt lat="48.99788" lon="2.00407">
        <ele>169.9</ele>
        <time>2021-11-13T18:07:04+01:00</time>
      </trkpt>
      <trkpt lat="48.99725" lon="2.00371">
        <ele>177</ele>
        <time>2021-11-13T18:07:09+01:00</time>
      </trkpt>
      <trkpt lat="48.99669" lon="2.0034">
        <ele>168.1</ele>
      </trkpt>
      <trkpt lat="48.99622" lon="2.00315">
        <ele>167.6</ele>
        <time>2021-11-13T18:07:14+01:00</time>
      </trkpt>
      <trkpt lat="48.99533" lon="2.00321">
        <ele>167.4</ele>
        <time>2021-11-13T18:07:19+01:00</time>
      </trkpt>
      <trkpt lat="48.99479" lon="2.00326">
        <ele>165.8</ele>
        <time>2021-11-13T18:07:24+01:00</time>
      </trkpt>
      <trkpt lat="48.99426" lon="2.00384">
        <ele>156</ele>
      </trkpt>
      <trkpt lat="48.99401" lon="2.00418">
        <ele>149.7</ele>
      </trkpt>
      <trkpt lat="48.99425" lon="2.00436">
        <ele>148</ele>
      </trkpt>
      <trkpt lat="48.99448" lon="2.00452">
        <ele>145.5</ele>
      </trkpt>
      <trkpt lat="48.99438" lon="2.00506">
        <ele>138</ele>
      </trkpt>
      <trkpt lat="48.99391" lon="2.00537">
        <ele>131.2</ele>
      </trkpt>
      <trkpt lat="48.9937" lon="2.00537">
        <ele>129</ele>
        <time>2021-11-13T18:07:29+01:00</time>
      </trkpt>
      <trkpt lat="48.99384" lon="2.0056">
        <ele>130.7</ele>
      </trkpt>
      <trkpt lat="48.99361" lon="2.00627">
        <ele>133.6</ele>
        <time>2021-11-13T18:07:34+01:00</time>
      </trkpt>
      <trkpt lat="48.99435" lon="2.00674">
        <ele>156</ele>
        <time>2021-11-13T18:07:39+01:00</time>
      </trkpt>
      <trkpt lat="48.99534" lon="2.0073">
        <ele>166</ele>
        <time>2021-11-13T18:07:44+01:00</time>
      </trkpt>
      <trkpt lat="48.99562" lon="2.00769">
        <ele>165.2</ele>
        <time>2021-11-13T18:07:49+01:00</time>
      </trkpt>
      <trkpt lat="48.99578" lon="2.008">
        <ele>166.7</ele>
        <time>2021-11-13T18:07:54+01:00</time>
      </trkpt>
      <trkpt lat="48.99526" lon="2.00776">
        <ele>170</ele>
        <time>2021-11-13T18:07:59+01:00</time>
      </trkpt>
      <trkpt lat="48.99476" lon="2.00763">
        <ele>168</ele>
        <time>2021-11-13T18:08:04+01:00</time>
      </trkpt>
      <trkpt lat="48.99398" lon="2.00819">
        <ele>170</ele>
        <time>2021-11-13T18:08:09+01:00</time>
      </trkpt>
      <trkpt lat="48.99328" lon="2.00876">
        <ele>160.1</ele>
        <time>2021-11-13T18:08:14+01:00</time>
      </trkpt>
      <trkpt lat="48.99331" lon="2.00943">
        <ele>167.6</ele>
        <time>2021-11-13T18:08:19+01:00</time>
      </trkpt>
      <trkpt lat="48.99325" lon="2.01029">
        <ele>173</ele>
        <time>2021-11-13T18:08:24+01:00</time>
      </trkpt>
      <trkpt lat="48.99294" lon="2.01109">
        <ele>173</ele>
        <time>2021-11-13T18:08:29+01:00</time>
      </trkpt>
      <trkpt lat="48.99151" lon="2.01315">
        <ele>174</ele>
        <time>2021-11-13T18:08:34+01:00</time>
      </trkpt>
      <trkpt lat="48.99089" lon="2.01608">
        <ele>167.8</ele>
        <time>2021-11-13T18:08:39+01:00</time>
      </trkpt>
      <trkpt lat="48.98799" lon="2.01717">
        <ele>163.5</ele>
        <time>2021-11-13T18:08:44+01:00</time>
      </trkpt>
      <trkpt lat="48.98797" lon="2.01639">
        <ele>161.1</ele>
        <time>2021-11-13T18:08:49+01:00</time>
      </trkpt>
      <trkpt lat="48.98802" lon="2.01543">
        <ele>158.5</ele>
        <time>2021-11-13T18:08:54+01:00</time>
      </trkpt>
      <trkpt lat="48.98814" lon="2.01494">
        <ele>154.9</ele>
        <time>2021-11-13T18:08:59+01:00</time>
      </trkpt>
      <trkpt lat="48.98825" lon="2.0146">
        <ele>152.8</ele>
        <time>2021-11-13T18:09:04+01:00</time>
      </trkpt>
      <trkpt lat="48.98867" lon="2.01397">
        <ele>158</ele>
        <time>2021-11-13T18:09:09+01:00</time>
      </trkpt>
      <trkpt lat="48.98879" lon="2.01367">
        <ele>157</ele>
        <time>2021-11-13T18:09:14+01:00</time>
      </trkpt>
      <trkpt lat="48.98914" lon="2.01324">
        <ele>157</ele>
        <time>2021-11-13T18:09:19+01:00</time>
      </trkpt>
      <trkpt lat="48.9894" lon="2.01303">
        <ele>152.1</ele>
        <time>2021-11-13T18:09:24+01:00</time>
      </trkpt>
      <trkpt lat="48.98982" lon="2.01282">
        <ele>157.1</ele>
      </trkpt>
      <trkpt lat="48.99024" lon="2.01294">
        <ele>161.7</ele>
      </trkpt>
      <trkpt lat="48.99079" lon="2.01272">
        <ele>164.4</ele>
      </trkpt>
      <trkpt lat="48.99111" lon="2.0123">
        <ele>162.6</ele>
        <time>2021-11-13T18:09:29+01:00</time>
      </trkpt>
      <trkpt lat="48.99098" lon="2.01164">
        <ele>157</ele>
        <time>2021-11-13T18:09:34+01:00</time>
      </trkpt>
      <trkpt lat="48.99087" lon="2.01068">
        <ele>149</ele>
        <time>2021-11-13T18:09:39+01:00</time>
      </trkpt>
      <trkpt lat="48.98996" lon="2.00932">
        <ele>130</ele>
        <time>2021-11-13T18:09:44+01:00</time>
      </trkpt>
      <trkpt lat="48.98824" lon="2.01144">
        <ele>115.1</ele>
        <time>2021-11-13T18:09:49+01:00</time>
      </trkpt>
      <trkpt lat="48.98811" lon="2.01134">
        <ele>112</ele>
      </trkpt>
      <trkpt lat="48.98775" lon="2.01129">
        <ele>106.9</ele>
      </trkpt>
      <trkpt lat="48.98748" lon="2.0111">
        <ele>100.9</ele>
      </trkpt>
      <trkpt lat="48.98699" lon="2.01068">
        <ele>97.6</ele>
      </trkpt>
      <trkpt lat="48.98706" lon="2.01122">
        <ele>99.8</ele>
      </trkpt>
      <trkpt lat="48.98684" lon="2.01164">
        <ele>102.2</ele>
      </trkpt>
      <trkpt lat="48.98641" lon="2.01193">
        <ele>105.8</ele>
      </trkpt>
      <trkpt lat="48.98597" lon="2.01149">
        <ele>112.2</ele>
      </trkpt>
      <trkpt lat="48.98507" lon="2.01195">
        <ele>123.3</ele>
        <time>2021-11-13T18:09:54+01:00</time>
      </trkpt>
      <trkpt lat="48.9848" lon="2.01155">
        <ele>120</ele>
        <time>2021-11-13T18:09:59+01:00</time>
      </trkpt>
      <trkpt lat="48.98468" lon="2.01008">
        <ele>110</ele>
        <time>2021-11-13T18:10:04+01:00</time>
      </trkpt>
      <trkpt lat="48.98471" lon="2.00855">
        <ele>99</ele>
        <time>2021-11-13T18:10:09+01:00</time>
      </trkpt>
      <trkpt lat="48.98448" lon="2.00737">
        <ele>88</ele>
        <time>2021-11-13T18:10:14+01:00</time>
      </trkpt>
      <trkpt lat="48.98404" lon="2.0063">
        <ele>75</ele>
        <time>2021-11-13T18:10:19+01:00</time>
      </trkpt>
      <trkpt lat="48.98387" lon="2.00636">
        <ele>75</ele>
        <time>2021-11-13T18:10:24+01:00</time>
      </trkpt>
      <trkpt lat="48.98339" lon="2.00705">
        <ele>82</ele>
        <time>2021-11-13T18:10:29+01:00</time>
      </trkpt>
      <trkpt lat="48.98341" lon="2.00724">
        <ele>84</ele>
        <time>2021-11-13T18:10:34+01:00</time>
      </trkpt>
      <trkpt lat="48.98283" lon="2.00811">
        <ele>84</ele>
        <time>2021-11-13T18:10:39+01:00</time>
      </trkpt>
      <trkpt lat="48.98256" lon="2.00885">
        <ele>84</ele>
        <time>2021-11-13T18:10:44+01:00</time>
      </trkpt>
      <trkpt lat="48.98173" lon="2.00996">
        <ele>87</ele>
        <time>2021-11-13T18:10:49+01:00</time>
      </trkpt>
      <trkpt lat="48.98151" lon="2.0095">
        <ele>81</ele>
        <time>2021-11-13T18:10:54+01:00</time>
      </trkpt>
      <trkpt lat="48.98126" lon="2.0092">
        <ele>77</ele>
        <time>2021-11-13T18:10:59+01:00</time>
      </trkpt>
      <trkpt lat="48.98036" lon="2.01041">
        <ele>81</ele>
        <time>2021-11-13T18:11:04+01:00</time>
      </trkpt>
      <trkpt lat="48.97979" lon="2.00945">
        <ele>71</ele>
        <time>2021-11-13T18:11:09+01:00</time>
      </trkpt>
      <trkpt lat="48.98061" lon="2.00835">
        <ele>70</ele>
        <time>2021-11-13T18:11:14+01:00</time>
      </trkpt>
      <trkpt lat="48.98014" lon="2.00767">
        <ele>62</ele>
        <time>2021-11-13T18:11:19+01:00</time>
      </trkpt>
      <trkpt lat="48.98068" lon="2.00701">
        <ele>59</ele>
        <time>2021-11-13T18:11:24+01:00</time>
      </trkpt>
      <trkpt lat="48.98145" lon="2.00603">
        <ele>60</ele>
        <time>2021-11-13T18:11:29+01:00</time>
      </trkpt>
      <trkpt lat="48.98124" lon="2.0055">
        <ele>53</ele>
        <time>2021-11-13T18:11:34+01:00</time>
      </trkpt>
      <trkpt lat="48.9808" lon="2.00581">
        <ele>53</ele>
        <time>2021-11-13T18:11:39+01:00</time>
      </trkpt>
      <trkpt lat="48.98064" lon="2.00596">
        <ele>53</ele>
        <time>2021-11-13T18:11:44+01:00</time>
      </trkpt>
      <trkpt lat="48.98006" lon="2.00625">
        <ele>50.9</ele>
        <time>2021-11-13T18:11:49+01:00</time>
      </trkpt>
    </trkseg>
  </trk>
</gpx>